createdAt,value
2019-01-25T00:02:52.105Z,0.50
2019-01-25T00:07:53.397Z,0.50
2019-01-25T00:12:54.682Z,0.50
2019-01-25T00:17:56.313Z,0.40
2019-01-25T00:22:57.981Z,0.50
2019-01-25T00:27:59.265Z,0.40
2019-01-25T00:33:00.538Z,0.40
2019-01-25T00:38:02.169Z,0.50
2019-01-25T00:43:03.637Z,0.40
2019-01-25T00:48:04.909Z,0.40
2019-01-25T00:53:06.184Z,0.40
2019-01-25T00:58:07.759Z,0.30
2019-01-25T01:03:09.331Z,0.20
2019-01-25T01:08:10.628Z,0.20
2019-01-25T01:13:12.173Z,0.30
2019-01-25T01:18:13.447Z,0.30
2019-01-25T01:23:15.046Z,0.30
2019-01-25T01:28:16.319Z,0.40
2019-01-25T01:33:17.593Z,0.30
2019-01-25T01:38:18.857Z,0.20
2019-01-25T01:43:20.127Z,0.10
2019-01-25T01:48:21.414Z,-0.20
2019-01-25T01:53:22.687Z,-0.20
2019-01-25T01:58:23.955Z,-0.30
2019-01-25T02:03:25.617Z,-0.30
2019-01-25T02:08:26.912Z,-0.60
2019-01-25T02:13:28.223Z,-0.80
2019-01-25T02:18:29.496Z,-1.10
2019-01-25T02:23:30.769Z,-0.90
2019-01-25T02:28:32.366Z,-0.80
2019-01-25T02:33:33.646Z,-0.90
2019-01-25T02:38:34.912Z,-0.80
2019-01-25T02:43:36.178Z,-0.80
2019-01-25T02:48:37.449Z,-0.60
2019-01-25T02:53:39.088Z,-0.50
2019-01-25T02:58:40.378Z,-0.20
2019-01-25T03:03:41.705Z,-0.30
2019-01-25T03:08:43.006Z,-0.30
2019-01-25T03:13:44.277Z,-0.40
2019-01-25T03:18:45.554Z,-0.50
2019-01-25T03:23:47.243Z,-0.80
2019-01-25T03:28:48.522Z,-1.00
2019-01-25T03:34:09.658Z,-1.30
2019-01-25T03:39:10.941Z,-1.30
2019-01-25T03:44:12.573Z,-1.30
2019-01-25T03:49:33.706Z,-1.30
2019-01-25T03:54:35.343Z,-1.20
2019-01-25T03:59:36.616Z,-1.10
2019-01-25T04:04:37.916Z,-0.90
2019-01-25T04:09:39.558Z,-0.70
2019-01-25T04:14:40.826Z,-0.60
2019-01-25T04:19:42.100Z,-0.70
2019-01-25T04:24:43.373Z,-0.60
2019-01-25T04:29:44.645Z,-0.80
2019-01-25T04:34:45.929Z,-1.10
2019-01-25T04:39:47.577Z,-1.20
2019-01-25T04:44:48.863Z,-1.10
2019-01-25T04:49:50.133Z,-0.90
2019-01-25T04:54:51.816Z,-0.80
2019-01-25T04:59:53.091Z,-1.10
2019-01-25T05:04:54.764Z,-1.30
2019-01-25T05:09:56.043Z,-1.40
2019-01-25T05:14:57.324Z,-1.30
2019-01-25T05:19:58.702Z,-1.20
2019-01-25T05:24:59.979Z,-1.40
2019-01-25T05:30:01.606Z,-1.30
2019-01-25T05:35:03.706Z,-1.00
2019-01-25T05:40:07.786Z,-0.90
2019-01-25T05:45:14.563Z,-0.80
2019-01-25T05:50:16.814Z,-0.80
2019-01-25T05:55:21.996Z,-0.70
2019-01-25T06:00:28.141Z,-0.80
2019-01-25T06:05:29.441Z,-0.80
2019-01-25T06:10:31.318Z,-1.00
2019-01-25T06:15:32.694Z,-1.00
2019-01-25T06:20:33.981Z,-0.80
2019-01-25T06:25:35.251Z,-0.70
2019-01-25T06:30:36.516Z,-0.80
2019-01-25T06:35:37.800Z,-0.90
2019-01-25T06:40:39.441Z,-0.90
2019-01-25T06:45:40.709Z,-0.60
2019-01-25T06:50:41.989Z,-0.90
2019-01-25T06:55:43.278Z,-0.60
2019-01-25T07:00:46.464Z,-0.50
2019-01-25T07:05:47.773Z,-0.60
2019-01-25T07:10:49.477Z,-0.50
2019-01-25T07:15:50.758Z,-0.70
2019-01-25T07:20:52.041Z,-0.40
2019-01-25T07:25:53.315Z,-0.40
2019-01-25T07:30:54.596Z,-0.60
2019-01-25T07:35:56.340Z,-0.50
2019-01-25T07:40:57.617Z,-0.60
2019-01-25T07:45:59.207Z,-0.70
2019-01-25T07:51:00.770Z,-0.70
2019-01-25T07:56:02.334Z,-0.50
2019-01-25T08:01:03.602Z,-0.40
2019-01-25T08:06:04.914Z,-0.20
2019-01-25T08:11:06.200Z,-0.60
2019-01-25T08:16:07.845Z,-0.80
2019-01-25T08:21:09.140Z,-0.60
2019-01-25T08:26:10.835Z,-0.60
2019-01-25T08:31:12.437Z,-0.40
2019-01-25T08:36:13.711Z,-0.70
2019-01-25T08:41:15.052Z,-0.40
2019-01-25T08:46:16.428Z,-0.50
2019-01-25T08:51:17.667Z,-0.40
2019-01-25T08:56:19.249Z,0.00
2019-01-25T09:01:20.533Z,0.20
2019-01-25T09:06:21.833Z,-0.20
2019-01-25T09:11:23.430Z,-0.10
2019-01-25T09:16:24.714Z,0.00
2019-01-25T09:21:25.985Z,0.20
2019-01-25T09:26:27.260Z,0.10
2019-01-25T09:31:28.536Z,0.30
2019-01-25T09:36:30.188Z,0.50
2019-01-25T09:41:31.861Z,0.50
2019-01-25T09:46:33.145Z,0.50
2019-01-25T09:51:34.705Z,0.30
2019-01-25T09:56:35.989Z,0.50
2019-01-25T10:01:37.261Z,0.50
2019-01-25T10:06:38.561Z,0.30
2019-01-25T10:11:39.842Z,0.40
2019-01-25T10:16:41.120Z,0.30
2019-01-25T10:21:42.393Z,0.30
2019-01-25T10:26:43.673Z,0.70
2019-01-25T10:31:44.948Z,0.60
2019-01-25T10:36:46.245Z,0.60
2019-01-25T10:41:47.532Z,0.90
2019-01-25T10:46:49.145Z,0.70
2019-01-25T10:51:50.417Z,0.90
2019-01-25T10:56:51.713Z,0.90
2019-01-25T11:01:52.982Z,0.80
2019-01-25T11:06:54.288Z,1.40
2019-01-25T11:11:55.565Z,1.20
2019-01-25T11:16:56.839Z,2.30
2019-01-25T11:21:58.107Z,2.40
2019-01-25T11:27:00.452Z,2.30
2019-01-25T11:32:01.753Z,2.50
2019-01-25T11:37:03.368Z,3.50
2019-01-25T11:42:04.655Z,4.00
2019-01-25T11:47:05.929Z,4.10
2019-01-25T11:52:07.205Z,5.10
2019-01-25T11:57:08.484Z,6.00
2019-01-25T12:02:09.756Z,5.60
2019-01-25T12:07:11.052Z,5.20
2019-01-25T12:12:12.333Z,5.60
2019-01-25T12:17:14.001Z,5.80
2019-01-25T12:22:15.389Z,6.00
2019-01-25T12:27:16.666Z,6.20
2019-01-25T12:32:17.942Z,6.10
2019-01-25T12:37:19.229Z,6.20
2019-01-25T12:42:21.642Z,5.90
2019-01-25T12:47:22.893Z,5.40
2019-01-25T12:52:24.173Z,5.30
2019-01-25T12:57:25.589Z,5.20
2019-01-25T13:02:26.981Z,4.90
2019-01-25T13:07:28.762Z,4.70
2019-01-25T13:12:30.174Z,5.20
2019-01-25T13:17:31.673Z,8.90
2019-01-25T13:22:33.192Z,11.80
2019-01-25T13:27:34.833Z,10.10
2019-01-25T13:32:36.340Z,9.10
2019-01-25T13:37:37.854Z,7.50
2019-01-25T13:42:39.124Z,6.70
2019-01-25T13:47:40.689Z,6.00
2019-01-25T13:52:41.964Z,5.20
2019-01-25T13:57:44.220Z,4.80
2019-01-25T14:02:45.757Z,4.60
2019-01-25T14:07:47.075Z,4.40
2019-01-25T14:12:48.609Z,4.30
2019-01-25T14:17:49.894Z,4.40
2019-01-25T14:22:51.409Z,4.30
2019-01-25T14:27:52.945Z,4.50
2019-01-25T14:32:55.341Z,5.00
2019-01-25T14:37:57.330Z,5.30
2019-01-25T14:42:59.088Z,5.40
2019-01-25T14:48:00.984Z,5.30
2019-01-25T14:53:02.953Z,4.90
2019-01-25T14:58:05.174Z,5.70
2019-01-25T15:03:07.557Z,5.70
2019-01-25T15:08:10.540Z,6.20
2019-01-25T15:13:13.574Z,6.50
2019-01-25T15:18:15.905Z,6.20
2019-01-25T15:23:18.565Z,5.40
2019-01-25T15:28:21.167Z,4.90
2019-01-25T15:33:23.457Z,4.50
2019-01-25T15:38:25.856Z,4.00
2019-01-25T15:43:28.858Z,3.80
2019-01-25T15:48:31.249Z,3.80
2019-01-25T15:53:33.752Z,3.60
2019-01-25T15:58:37.197Z,3.30
2019-01-25T16:03:39.574Z,3.10
2019-01-25T16:08:42.261Z,2.90
2019-01-25T16:13:45.164Z,2.70
2019-01-25T16:18:47.566Z,2.80
2019-01-25T16:23:50.732Z,2.50
2019-01-25T16:28:53.628Z,2.50
2019-01-25T16:33:56.697Z,2.40
2019-01-25T16:38:59.701Z,2.00
2019-01-25T16:44:02.713Z,1.70
2019-01-25T16:49:05.605Z,1.50
2019-01-25T16:54:08.330Z,1.40
2019-01-25T16:59:11.545Z,1.30
2019-01-25T17:04:14.256Z,0.90
2019-01-25T17:09:15.913Z,0.70
2019-01-25T17:14:17.200Z,0.80
2019-01-25T17:19:18.477Z,0.90
2019-01-25T17:24:20.093Z,1.10
2019-01-25T17:29:23.438Z,1.30
2019-01-25T17:34:26.453Z,1.30
2019-01-25T17:39:29.455Z,1.40
2019-01-25T17:44:51.073Z,1.20
2019-01-25T17:49:53.897Z,1.30
2019-01-25T17:54:56.992Z,1.20
2019-01-25T18:00:00.356Z,1.30
2019-01-25T18:05:03.333Z,1.40
2019-01-25T18:10:11.418Z,1.20
2019-01-25T18:15:15.510Z,1.30
2019-01-25T18:20:24.529Z,1.30
2019-01-25T18:25:35.801Z,1.30
2019-01-25T18:30:44.030Z,1.10
2019-01-25T18:35:47.568Z,1.00
2019-01-25T18:40:50.645Z,1.20
2019-01-25T18:45:54.100Z,1.10
2019-01-25T18:50:56.921Z,1.00
2019-01-25T18:56:00.312Z,0.90
2019-01-25T19:01:03.321Z,1.10
2019-01-25T19:06:06.633Z,1.00
2019-01-25T19:11:10.280Z,1.20
2019-01-25T19:16:13.782Z,1.20
2019-01-25T19:21:17.589Z,1.30
2019-01-25T19:26:21.029Z,1.20
2019-01-25T19:31:24.959Z,1.10
2019-01-25T19:36:28.573Z,1.10
2019-01-25T19:41:32.517Z,1.10
2019-01-25T19:46:36.538Z,1.10
2019-01-25T19:51:40.156Z,1.50
2019-01-25T19:56:43.970Z,1.60
2019-01-25T20:01:47.232Z,1.70
2019-01-25T20:06:51.555Z,1.70
2019-01-25T20:11:55.573Z,1.90
2019-01-25T20:16:59.008Z,2.00
2019-01-25T20:22:02.259Z,2.00
2019-01-25T20:27:06.468Z,2.00
2019-01-25T20:32:09.781Z,2.20
2019-01-25T20:37:12.787Z,2.20
2019-01-25T20:42:16.300Z,2.10
2019-01-25T20:47:19.421Z,2.20
2019-01-25T20:52:22.725Z,2.30
2019-01-25T20:57:25.945Z,2.30
2019-01-25T21:02:28.910Z,2.30
2019-01-25T21:07:31.963Z,2.40
2019-01-25T21:12:35.073Z,2.50
2019-01-25T21:17:37.991Z,2.60
2019-01-25T21:22:41.245Z,2.50
2019-01-25T21:27:44.637Z,2.50
2019-01-25T21:32:47.593Z,2.60
2019-01-25T21:37:50.901Z,2.60
2019-01-25T21:42:53.843Z,2.50
2019-01-25T21:47:56.949Z,2.60
2019-01-25T21:52:59.837Z,2.50
2019-01-25T21:58:05.257Z,2.40
2019-01-25T22:03:07.529Z,2.60
2019-01-25T22:08:10.012Z,2.60
2019-01-25T22:13:12.718Z,2.70
2019-01-25T22:18:15.021Z,2.80
2019-01-25T22:23:17.506Z,2.80
2019-01-25T22:28:19.902Z,2.80
2019-01-25T22:33:22.193Z,2.70
2019-01-25T22:38:24.289Z,2.70
2019-01-25T22:43:25.951Z,2.70
2019-01-25T22:48:27.593Z,2.80
2019-01-25T22:53:28.863Z,2.80
2019-01-25T22:58:30.448Z,2.90
2019-01-25T23:03:38.561Z,3.00
2019-01-25T23:08:39.930Z,3.00
2019-01-25T23:13:41.148Z,3.00
2019-01-25T23:18:42.420Z,3.00
2019-01-25T23:23:43.721Z,3.00
2019-01-25T23:28:44.971Z,3.00
2019-01-25T23:33:46.272Z,2.90
2019-01-25T23:38:47.553Z,3.00
2019-01-25T23:43:49.118Z,2.90
2019-01-25T23:48:50.340Z,3.00
2019-01-25T23:53:51.621Z,3.00
2019-01-25T23:58:52.902Z,2.90
